sensor_id;sensor_type;location;lat;lon;timestamp;P1;durP1;ratioP1;P2;durP2;ratioP2
67597;SDS011;62026;39.230;9.122;2023-08-17T00:00:33;5.53;;;3.58;;
67597;SDS011;62026;39.230;9.122;2023-08-17T00:02:59;6.47;;;3.55;;
67597;SDS011;62026;39.230;9.122;2023-08-17T00:05:25;5.05;;;3.40;;
67597;SDS011;62026;39.230;9.122;2023-08-17T00:07:51;6.65;;;3.30;;
67597;SDS011;62026;39.230;9.122;2023-08-17T00:10:17;5.55;;;3.33;;
67597;SDS011;62026;39.230;9.122;2023-08-17T00:12:43;3.88;;;3.28;;
67597;SDS011;62026;39.230;9.122;2023-08-17T00:15:09;4.22;;;3.08;;
67597;SDS011;62026;39.230;9.122;2023-08-17T00:17:35;4.88;;;3.35;;
67597;SDS011;62026;39.230;9.122;2023-08-17T00:20:01;7.72;;;3.63;;
67597;SDS011;62026;39.230;9.122;2023-08-17T00:22:30;5.93;;;3.40;;
67597;SDS011;62026;39.230;9.122;2023-08-17T00:24:56;8.82;;;4.18;;
67597;SDS011;62026;39.230;9.122;2023-08-17T00:27:22;7.88;;;4.00;;
67597;SDS011;62026;39.230;9.122;2023-08-17T00:29:48;6.47;;;3.65;;
67597;SDS011;62026;39.230;9.122;2023-08-17T00:32:14;6.20;;;3.60;;
67597;SDS011;62026;39.230;9.122;2023-08-17T00:34:40;4.93;;;3.50;;
67597;SDS011;62026;39.230;9.122;2023-08-17T00:37:06;4.38;;;3.70;;
67597;SDS011;62026;39.230;9.122;2023-08-17T00:39:32;6.47;;;3.75;;
67597;SDS011;62026;39.230;9.122;2023-08-17T00:41:59;4.20;;;3.75;;
67597;SDS011;62026;39.230;9.122;2023-08-17T00:44:25;5.97;;;3.70;;
67597;SDS011;62026;39.230;9.122;2023-08-17T00:46:51;4.05;;;3.35;;
67597;SDS011;62026;39.230;9.122;2023-08-17T00:49:17;7.07;;;3.53;;
67597;SDS011;62026;39.230;9.122;2023-08-17T00:51:44;8.50;;;3.47;;
67597;SDS011;62026;39.230;9.122;2023-08-17T00:54:10;6.07;;;3.97;;
67597;SDS011;62026;39.230;9.122;2023-08-17T00:56:37;6.13;;;3.60;;
67597;SDS011;62026;39.230;9.122;2023-08-17T00:59:03;5.30;;;3.55;;
67597;SDS011;62026;39.230;9.122;2023-08-17T01:01:30;8.18;;;3.63;;
67597;SDS011;62026;39.230;9.122;2023-08-17T01:03:57;9.52;;;3.67;;
67597;SDS011;62026;39.230;9.122;2023-08-17T01:06:23;7.95;;;3.28;;
67597;SDS011;62026;39.230;9.122;2023-08-17T01:08:49;4.57;;;3.40;;
67597;SDS011;62026;39.230;9.122;2023-08-17T01:11:20;9.63;;;3.63;;
67597;SDS011;62026;39.230;9.122;2023-08-17T01:17:10;5.00;;;3.55;;
67597;SDS011;62026;39.230;9.122;2023-08-17T01:19:47;5.28;;;3.72;;
67597;SDS011;62026;39.230;9.122;2023-08-17T01:22:17;5.70;;;3.63;;
67597;SDS011;62026;39.230;9.122;2023-08-17T01:24:47;9.20;;;4.13;;
67597;SDS011;62026;39.230;9.122;2023-08-17T01:27:14;6.03;;;4.18;;
67597;SDS011;62026;39.230;9.122;2023-08-17T01:29:40;7.55;;;3.90;;
67597;SDS011;62026;39.230;9.122;2023-08-17T01:32:09;8.07;;;4.20;;
67597;SDS011;62026;39.230;9.122;2023-08-17T01:34:50;10.18;;;3.75;;
67597;SDS011;62026;39.230;9.122;2023-08-17T01:37:28;7.25;;;4.18;;
67597;SDS011;62026;39.230;9.122;2023-08-17T01:39:59;6.85;;;3.67;;
67597;SDS011;62026;39.230;9.122;2023-08-17T01:42:25;9.23;;;4.55;;
67597;SDS011;62026;39.230;9.122;2023-08-17T01:44:53;6.57;;;4.32;;
67597;SDS011;62026;39.230;9.122;2023-08-17T01:47:20;6.18;;;4.22;;
67597;SDS011;62026;39.230;9.122;2023-08-17T01:49:47;8.05;;;4.10;;
67597;SDS011;62026;39.230;9.122;2023-08-17T01:52:14;6.53;;;4.60;;
67597;SDS011;62026;39.230;9.122;2023-08-17T01:54:40;9.07;;;4.20;;
67597;SDS011;62026;39.230;9.122;2023-08-17T01:57:06;9.50;;;4.25;;
67597;SDS011;62026;39.230;9.122;2023-08-17T01:59:32;8.40;;;4.35;;
67597;SDS011;62026;39.230;9.122;2023-08-17T02:01:59;5.60;;;3.92;;
67597;SDS011;62026;39.230;9.122;2023-08-17T02:04:25;8.35;;;4.75;;
67597;SDS011;62026;39.230;9.122;2023-08-17T02:06:51;5.63;;;4.38;;
67597;SDS011;62026;39.230;9.122;2023-08-17T02:09:17;8.60;;;4.38;;
67597;SDS011;62026;39.230;9.122;2023-08-17T02:11:43;6.97;;;3.70;;
67597;SDS011;62026;39.230;9.122;2023-08-17T02:14:09;6.35;;;3.75;;
67597;SDS011;62026;39.230;9.122;2023-08-17T02:16:35;4.25;;;3.67;;
67597;SDS011;62026;39.230;9.122;2023-08-17T02:19:01;5.70;;;3.40;;
67597;SDS011;62026;39.230;9.122;2023-08-17T02:21:28;6.00;;;3.22;;
67597;SDS011;62026;39.230;9.122;2023-08-17T02:23:54;11.98;;;3.63;;
67597;SDS011;62026;39.230;9.122;2023-08-17T02:26:21;5.10;;;3.40;;
67597;SDS011;62026;39.230;9.122;2023-08-17T02:28:47;5.63;;;3.00;;
67597;SDS011;62026;39.230;9.122;2023-08-17T02:31:13;4.13;;;2.78;;
67597;SDS011;62026;39.230;9.122;2023-08-17T02:33:39;5.93;;;3.22;;
67597;SDS011;62026;39.230;9.122;2023-08-17T02:36:05;5.63;;;3.40;;
67597;SDS011;62026;39.230;9.122;2023-08-17T02:38:32;5.65;;;3.15;;
67597;SDS011;62026;39.230;9.122;2023-08-17T02:40:58;5.63;;;3.20;;
67597;SDS011;62026;39.230;9.122;2023-08-17T02:43:24;6.43;;;3.35;;
67597;SDS011;62026;39.230;9.122;2023-08-17T02:45:50;6.32;;;3.20;;
67597;SDS011;62026;39.230;9.122;2023-08-17T02:48:16;6.60;;;3.40;;
67597;SDS011;62026;39.230;9.122;2023-08-17T02:50:42;4.57;;;2.92;;
67597;SDS011;62026;39.230;9.122;2023-08-17T02:53:08;6.20;;;3.38;;
67597;SDS011;62026;39.230;9.122;2023-08-17T02:55:34;4.60;;;3.20;;
67597;SDS011;62026;39.230;9.122;2023-08-17T02:58:00;5.30;;;3.22;;
67597;SDS011;62026;39.230;9.122;2023-08-17T03:00:26;9.63;;;3.55;;
67597;SDS011;62026;39.230;9.122;2023-08-17T03:02:52;4.47;;;3.50;;
67597;SDS011;62026;39.230;9.122;2023-08-17T03:05:19;5.38;;;3.20;;
67597;SDS011;62026;39.230;9.122;2023-08-17T03:07:45;5.68;;;3.28;;
67597;SDS011;62026;39.230;9.122;2023-08-17T03:10:12;6.03;;;3.47;;
67597;SDS011;62026;39.230;9.122;2023-08-17T03:12:39;5.35;;;3.47;;
67597;SDS011;62026;39.230;9.122;2023-08-17T03:15:05;5.80;;;3.42;;
67597;SDS011;62026;39.230;9.122;2023-08-17T03:17:33;7.05;;;3.80;;
67597;SDS011;62026;39.230;9.122;2023-08-17T03:19:59;3.55;;;3.25;;
67597;SDS011;62026;39.230;9.122;2023-08-17T03:22:26;5.85;;;3.22;;
67597;SDS011;62026;39.230;9.122;2023-08-17T03:24:54;4.65;;;3.50;;
67597;SDS011;62026;39.230;9.122;2023-08-17T03:27:21;7.03;;;3.60;;
67597;SDS011;62026;39.230;9.122;2023-08-17T03:29:47;4.88;;;3.40;;
67597;SDS011;62026;39.230;9.122;2023-08-17T03:32:13;7.72;;;3.40;;
67597;SDS011;62026;39.230;9.122;2023-08-17T03:34:39;4.95;;;3.10;;
67597;SDS011;62026;39.230;9.122;2023-08-17T03:37:06;8.98;;;3.40;;
67597;SDS011;62026;39.230;9.122;2023-08-17T03:39:32;6.40;;;3.60;;
67597;SDS011;62026;39.230;9.122;2023-08-17T03:41:58;4.75;;;3.40;;
67597;SDS011;62026;39.230;9.122;2023-08-17T03:44:24;6.82;;;3.60;;
67597;SDS011;62026;39.230;9.122;2023-08-17T03:46:50;5.85;;;3.58;;
67597;SDS011;62026;39.230;9.122;2023-08-17T03:49:16;6.40;;;3.70;;
67597;SDS011;62026;39.230;9.122;2023-08-17T03:51:42;7.05;;;3.90;;
67597;SDS011;62026;39.230;9.122;2023-08-17T03:54:09;6.60;;;3.80;;
67597;SDS011;62026;39.230;9.122;2023-08-17T03:56:37;9.02;;;3.95;;
67597;SDS011;62026;39.230;9.122;2023-08-17T03:59:03;8.05;;;3.92;;
67597;SDS011;62026;39.230;9.122;2023-08-17T04:01:31;6.47;;;4.10;;
67597;SDS011;62026;39.230;9.122;2023-08-17T04:03:57;8.00;;;4.50;;
67597;SDS011;62026;39.230;9.122;2023-08-17T04:06:23;7.13;;;4.10;;
67597;SDS011;62026;39.230;9.122;2023-08-17T04:08:49;5.55;;;3.90;;
67597;SDS011;62026;39.230;9.122;2023-08-17T04:11:15;9.10;;;4.50;;
67597;SDS011;62026;39.230;9.122;2023-08-17T04:13:41;5.82;;;4.25;;
67597;SDS011;62026;39.230;9.122;2023-08-17T04:16:07;7.88;;;4.30;;
67597;SDS011;62026;39.230;9.122;2023-08-17T04:18:33;8.15;;;4.35;;
67597;SDS011;62026;39.230;9.122;2023-08-17T04:20:59;5.45;;;4.10;;
67597;SDS011;62026;39.230;9.122;2023-08-17T04:23:24;7.38;;;4.30;;
67597;SDS011;62026;39.230;9.122;2023-08-17T04:25:50;6.68;;;4.50;;
67597;SDS011;62026;39.230;9.122;2023-08-17T04:28:19;6.38;;;4.15;;
67597;SDS011;62026;39.230;9.122;2023-08-17T04:30:46;8.57;;;4.45;;
67597;SDS011;62026;39.230;9.122;2023-08-17T04:33:12;8.45;;;4.32;;
67597;SDS011;62026;39.230;9.122;2023-08-17T04:35:38;13.55;;;4.65;;
67597;SDS011;62026;39.230;9.122;2023-08-17T04:38:05;7.20;;;4.47;;
67597;SDS011;62026;39.230;9.122;2023-08-17T04:40:31;7.95;;;4.35;;
67597;SDS011;62026;39.230;9.122;2023-08-17T04:42:59;11.25;;;4.75;;
67597;SDS011;62026;39.230;9.122;2023-08-17T04:45:26;5.60;;;3.70;;
67597;SDS011;62026;39.230;9.122;2023-08-17T04:47:52;10.45;;;4.13;;
67597;SDS011;62026;39.230;9.122;2023-08-17T04:50:18;10.05;;;3.80;;
67597;SDS011;62026;39.230;9.122;2023-08-17T04:52:44;5.05;;;3.47;;
67597;SDS011;62026;39.230;9.122;2023-08-17T04:55:11;8.05;;;3.58;;
67597;SDS011;62026;39.230;9.122;2023-08-17T04:57:41;8.07;;;3.30;;
67597;SDS011;62026;39.230;9.122;2023-08-17T05:00:08;5.32;;;3.35;;
67597;SDS011;62026;39.230;9.122;2023-08-17T05:02:36;7.53;;;3.60;;
67597;SDS011;62026;39.230;9.122;2023-08-17T05:05:04;6.43;;;3.60;;
67597;SDS011;62026;39.230;9.122;2023-08-17T05:07:32;4.47;;;3.35;;
67597;SDS011;62026;39.230;9.122;2023-08-17T05:09:59;10.48;;;4.20;;
67597;SDS011;62026;39.230;9.122;2023-08-17T05:12:27;6.13;;;3.67;;
67597;SDS011;62026;39.230;9.122;2023-08-17T05:14:53;5.03;;;3.45;;
67597;SDS011;62026;39.230;9.122;2023-08-17T05:17:20;8.18;;;3.78;;
67597;SDS011;62026;39.230;9.122;2023-08-17T05:19:46;5.40;;;3.25;;
67597;SDS011;62026;39.230;9.122;2023-08-17T05:22:13;9.15;;;3.78;;
67597;SDS011;62026;39.230;9.122;2023-08-17T05:24:39;7.55;;;3.42;;
67597;SDS011;62026;39.230;9.122;2023-08-17T05:27:06;9.57;;;3.72;;
67597;SDS011;62026;39.230;9.122;2023-08-17T05:29:32;11.00;;;4.18;;
67597;SDS011;62026;39.230;9.122;2023-08-17T05:31:59;6.72;;;3.80;;
67597;SDS011;62026;39.230;9.122;2023-08-17T05:34:25;8.55;;;3.25;;
67597;SDS011;62026;39.230;9.122;2023-08-17T05:36:52;8.75;;;3.60;;
67597;SDS011;62026;39.230;9.122;2023-08-17T05:39:18;10.75;;;3.58;;
67597;SDS011;62026;39.230;9.122;2023-08-17T05:41:45;8.52;;;3.40;;
67597;SDS011;62026;39.230;9.122;2023-08-17T05:44:11;5.57;;;3.08;;
67597;SDS011;62026;39.230;9.122;2023-08-17T05:46:38;7.22;;;2.97;;
67597;SDS011;62026;39.230;9.122;2023-08-17T05:49:06;16.77;;;3.10;;
67597;SDS011;62026;39.230;9.122;2023-08-17T05:51:32;11.60;;;3.42;;
67597;SDS011;62026;39.230;9.122;2023-08-17T05:53:58;14.30;;;3.60;;
67597;SDS011;62026;39.230;9.122;2023-08-17T05:56:24;10.80;;;3.40;;
67597;SDS011;62026;39.230;9.122;2023-08-17T05:58:50;10.63;;;3.55;;
67597;SDS011;62026;39.230;9.122;2023-08-17T06:01:16;14.52;;;3.65;;
67597;SDS011;62026;39.230;9.122;2023-08-17T06:03:42;6.47;;;3.50;;
67597;SDS011;62026;39.230;9.122;2023-08-17T06:06:09;7.50;;;3.47;;
67597;SDS011;62026;39.230;9.122;2023-08-17T06:08:35;7.65;;;3.17;;
67597;SDS011;62026;39.230;9.122;2023-08-17T06:11:01;6.57;;;3.42;;
67597;SDS011;62026;39.230;9.122;2023-08-17T06:13:27;8.70;;;3.13;;
67597;SDS011;62026;39.230;9.122;2023-08-17T06:15:52;9.38;;;3.38;;
67597;SDS011;62026;39.230;9.122;2023-08-17T06:18:18;5.43;;;2.85;;
67597;SDS011;62026;39.230;9.122;2023-08-17T06:20:45;3.83;;;2.60;;
67597;SDS011;62026;39.230;9.122;2023-08-17T06:23:13;8.95;;;2.78;;
67597;SDS011;62026;39.230;9.122;2023-08-17T06:25:39;4.63;;;2.65;;
67597;SDS011;62026;39.230;9.122;2023-08-17T06:28:05;9.70;;;2.85;;
67597;SDS011;62026;39.230;9.122;2023-08-17T06:30:31;5.43;;;2.70;;
67597;SDS011;62026;39.230;9.122;2023-08-17T06:32:58;7.93;;;3.47;;
67597;SDS011;62026;39.230;9.122;2023-08-17T06:35:24;4.55;;;2.70;;
67597;SDS011;62026;39.230;9.122;2023-08-17T06:37:50;9.70;;;2.80;;
67597;SDS011;62026;39.230;9.122;2023-08-17T06:40:19;3.40;;;2.10;;
67597;SDS011;62026;39.230;9.122;2023-08-17T06:42:45;8.15;;;2.65;;
67597;SDS011;62026;39.230;9.122;2023-08-17T06:45:11;6.05;;;2.53;;
67597;SDS011;62026;39.230;9.122;2023-08-17T06:47:37;5.40;;;2.50;;
67597;SDS011;62026;39.230;9.122;2023-08-17T06:50:03;5.25;;;2.20;;
67597;SDS011;62026;39.230;9.122;2023-08-17T06:52:29;3.70;;;2.10;;
67597;SDS011;62026;39.230;9.122;2023-08-17T06:54:55;5.60;;;2.40;;
67597;SDS011;62026;39.230;9.122;2023-08-17T06:57:21;3.13;;;2.10;;
67597;SDS011;62026;39.230;9.122;2023-08-17T06:59:47;4.43;;;2.10;;
67597;SDS011;62026;39.230;9.122;2023-08-17T07:02:13;5.55;;;2.20;;
67597;SDS011;62026;39.230;9.122;2023-08-17T07:04:39;4.90;;;2.20;;
67597;SDS011;62026;39.230;9.122;2023-08-17T07:07:05;3.17;;;2.00;;
67597;SDS011;62026;39.230;9.122;2023-08-17T07:09:31;5.97;;;1.90;;
67597;SDS011;62026;39.230;9.122;2023-08-17T07:11:58;7.10;;;2.20;;
67597;SDS011;62026;39.230;9.122;2023-08-17T07:14:24;6.20;;;2.20;;
67597;SDS011;62026;39.230;9.122;2023-08-17T07:16:50;3.53;;;2.10;;
67597;SDS011;62026;39.230;9.122;2023-08-17T07:19:16;3.80;;;2.03;;
67597;SDS011;62026;39.230;9.122;2023-08-17T07:21:42;4.28;;;2.10;;
67597;SDS011;62026;39.230;9.122;2023-08-17T07:24:11;6.95;;;2.05;;
67597;SDS011;62026;39.230;9.122;2023-08-17T07:26:38;5.97;;;2.30;;
67597;SDS011;62026;39.230;9.122;2023-08-17T07:29:05;2.88;;;2.10;;
67597;SDS011;62026;39.230;9.122;2023-08-17T07:31:31;3.33;;;2.00;;
67597;SDS011;62026;39.230;9.122;2023-08-17T07:33:59;6.15;;;2.00;;
67597;SDS011;62026;39.230;9.122;2023-08-17T07:36:25;3.90;;;2.08;;
67597;SDS011;62026;39.230;9.122;2023-08-17T07:38:51;3.80;;;2.00;;
67597;SDS011;62026;39.230;9.122;2023-08-17T07:41:17;2.72;;;1.98;;
67597;SDS011;62026;39.230;9.122;2023-08-17T07:43:43;7.25;;;2.28;;
67597;SDS011;62026;39.230;9.122;2023-08-17T07:46:09;2.70;;;2.22;;
67597;SDS011;62026;39.230;9.122;2023-08-17T07:48:35;3.65;;;1.80;;
67597;SDS011;62026;39.230;9.122;2023-08-17T07:51:01;3.35;;;1.92;;
67597;SDS011;62026;39.230;9.122;2023-08-17T07:53:27;4.97;;;1.98;;
67597;SDS011;62026;39.230;9.122;2023-08-17T07:55:53;4.22;;;1.85;;
67597;SDS011;62026;39.230;9.122;2023-08-17T07:58:19;2.97;;;1.77;;
67597;SDS011;62026;39.230;9.122;2023-08-17T08:00:45;4.55;;;1.80;;
67597;SDS011;62026;39.230;9.122;2023-08-17T08:03:11;4.72;;;1.73;;
67597;SDS011;62026;39.230;9.122;2023-08-17T08:05:37;2.92;;;1.73;;
67597;SDS011;62026;39.230;9.122;2023-08-17T08:08:03;7.00;;;1.70;;
67597;SDS011;62026;39.230;9.122;2023-08-17T08:10:29;2.97;;;1.60;;
67597;SDS011;62026;39.230;9.122;2023-08-17T08:12:55;3.58;;;1.90;;
67597;SDS011;62026;39.230;9.122;2023-08-17T08:15:21;2.95;;;1.80;;
67597;SDS011;62026;39.230;9.122;2023-08-17T08:17:47;7.50;;;1.77;;
67597;SDS011;62026;39.230;9.122;2023-08-17T08:20:13;4.07;;;1.80;;
67597;SDS011;62026;39.230;9.122;2023-08-17T08:22:39;5.10;;;1.70;;
67597;SDS011;62026;39.230;9.122;2023-08-17T08:25:05;4.18;;;1.90;;
67597;SDS011;62026;39.230;9.122;2023-08-17T08:27:32;2.38;;;1.70;;
67597;SDS011;62026;39.230;9.122;2023-08-17T08:29:58;3.35;;;1.90;;
67597;SDS011;62026;39.230;9.122;2023-08-17T08:32:24;4.97;;;2.13;;
67597;SDS011;62026;39.230;9.122;2023-08-17T08:34:50;3.45;;;1.77;;
67597;SDS011;62026;39.230;9.122;2023-08-17T08:37:16;4.20;;;1.88;;
67597;SDS011;62026;39.230;9.122;2023-08-17T08:39:50;3.45;;;2.08;;
67597;SDS011;62026;39.230;9.122;2023-08-17T08:42:18;4.28;;;2.00;;
67597;SDS011;62026;39.230;9.122;2023-08-17T08:44:46;5.50;;;2.33;;
67597;SDS011;62026;39.230;9.122;2023-08-17T08:47:14;4.30;;;2.60;;
67597;SDS011;62026;39.230;9.122;2023-08-17T08:49:57;2.60;;;2.40;;
67597;SDS011;62026;39.230;9.122;2023-08-17T08:52:32;4.72;;;2.50;;
67597;SDS011;62026;39.230;9.122;2023-08-17T08:55:15;4.30;;;2.55;;
67597;SDS011;62026;39.230;9.122;2023-08-17T08:57:46;3.10;;;2.65;;
67597;SDS011;62026;39.230;9.122;2023-08-17T09:00:14;3.95;;;2.15;;
67597;SDS011;62026;39.230;9.122;2023-08-17T09:02:42;4.43;;;2.80;;
67597;SDS011;62026;39.230;9.122;2023-08-17T09:05:10;5.22;;;2.70;;
67597;SDS011;62026;39.230;9.122;2023-08-17T09:07:36;4.80;;;2.90;;
67597;SDS011;62026;39.230;9.122;2023-08-17T09:10:06;6.45;;;2.60;;
67597;SDS011;62026;39.230;9.122;2023-08-17T09:12:34;4.05;;;2.65;;
67597;SDS011;62026;39.230;9.122;2023-08-17T09:15:00;3.28;;;2.40;;
67597;SDS011;62026;39.230;9.122;2023-08-17T09:17:26;3.78;;;2.70;;
67597;SDS011;62026;39.230;9.122;2023-08-17T09:19:53;5.90;;;2.83;;
67597;SDS011;62026;39.230;9.122;2023-08-17T09:22:23;3.75;;;2.47;;
67597;SDS011;62026;39.230;9.122;2023-08-17T09:24:50;3.03;;;2.30;;
67597;SDS011;62026;39.230;9.122;2023-08-17T09:27:17;3.17;;;2.53;;
67597;SDS011;62026;39.230;9.122;2023-08-17T09:29:43;3.78;;;2.42;;
67597;SDS011;62026;39.230;9.122;2023-08-17T09:32:11;2.97;;;2.28;;
67597;SDS011;62026;39.230;9.122;2023-08-17T09:34:43;5.25;;;2.50;;
67597;SDS011;62026;39.230;9.122;2023-08-17T09:37:11;6.47;;;2.30;;
67597;SDS011;62026;39.230;9.122;2023-08-17T09:39:38;4.10;;;2.40;;
67597;SDS011;62026;39.230;9.122;2023-08-17T09:42:04;3.83;;;2.40;;
67597;SDS011;62026;39.230;9.122;2023-08-17T09:44:33;7.13;;;2.50;;
67597;SDS011;62026;39.230;9.122;2023-08-17T09:47:00;3.75;;;2.60;;
67597;SDS011;62026;39.230;9.122;2023-08-17T09:49:26;2.92;;;2.63;;
67597;SDS011;62026;39.230;9.122;2023-08-17T09:54:30;2.90;;;2.45;;
67597;SDS011;62026;39.230;9.122;2023-08-17T09:56:57;4.63;;;2.70;;
67597;SDS011;62026;39.230;9.122;2023-08-17T09:59:24;2.63;;;2.10;;
67597;SDS011;62026;39.230;9.122;2023-08-17T10:01:50;3.72;;;2.38;;
67597;SDS011;62026;39.230;9.122;2023-08-17T10:04:19;4.57;;;2.60;;
67597;SDS011;62026;39.230;9.122;2023-08-17T10:06:48;3.20;;;2.37;;
67597;SDS011;62026;39.230;9.122;2023-08-17T10:09:39;5.68;;;2.33;;
67597;SDS011;62026;39.230;9.122;2023-08-17T10:12:11;5.32;;;2.38;;
67597;SDS011;62026;39.230;9.122;2023-08-17T10:14:45;3.60;;;2.20;;
67597;SDS011;62026;39.230;9.122;2023-08-17T10:17:27;2.60;;;2.10;;
67597;SDS011;62026;39.230;9.122;2023-08-17T10:20:02;2.45;;;2.00;;
67597;SDS011;62026;39.230;9.122;2023-08-17T10:25:10;3.13;;;2.33;;
67597;SDS011;62026;39.230;9.122;2023-08-17T10:27:39;2.75;;;2.08;;
67597;SDS011;62026;39.230;9.122;2023-08-17T10:30:10;2.25;;;2.00;;
67597;SDS011;62026;39.230;9.122;2023-08-17T10:32:39;2.90;;;2.00;;
67597;SDS011;62026;39.230;9.122;2023-08-17T10:35:10;3.17;;;2.10;;
67597;SDS011;62026;39.230;9.122;2023-08-17T10:37:37;2.47;;;1.98;;
67597;SDS011;62026;39.230;9.122;2023-08-17T10:40:04;4.55;;;2.25;;
67597;SDS011;62026;39.230;9.122;2023-08-17T10:42:31;2.47;;;1.70;;
67597;SDS011;62026;39.230;9.122;2023-08-17T10:45:00;4.93;;;2.03;;
67597;SDS011;62026;39.230;9.122;2023-08-17T10:47:48;2.70;;;2.10;;
67597;SDS011;62026;39.230;9.122;2023-08-17T10:52:49;7.18;;;1.90;;
67597;SDS011;62026;39.230;9.122;2023-08-17T10:55:21;4.20;;;2.10;;
67597;SDS011;62026;39.230;9.122;2023-08-17T10:58:02;1.92;;;1.73;;
67597;SDS011;62026;39.230;9.122;2023-08-17T11:00:35;3.72;;;2.03;;
67597;SDS011;62026;39.230;9.122;2023-08-17T11:03:08;3.65;;;2.30;;
67597;SDS011;62026;39.230;9.122;2023-08-17T11:08:09;4.18;;;2.35;;
67597;SDS011;62026;39.230;9.122;2023-08-17T11:13:41;3.78;;;2.10;;
67597;SDS011;62026;39.230;9.122;2023-08-17T11:16:10;3.58;;;2.30;;
67597;SDS011;62026;39.230;9.122;2023-08-17T11:18:38;3.53;;;2.25;;
67597;SDS011;62026;39.230;9.122;2023-08-17T11:21:07;2.83;;;2.10;;
67597;SDS011;62026;39.230;9.122;2023-08-17T11:23:35;3.20;;;2.17;;
67597;SDS011;62026;39.230;9.122;2023-08-17T11:26:03;4.90;;;2.35;;
67597;SDS011;62026;39.230;9.122;2023-08-17T11:28:30;4.25;;;2.22;;
67597;SDS011;62026;39.230;9.122;2023-08-17T11:31:06;3.42;;;2.17;;
67597;SDS011;62026;39.230;9.122;2023-08-17T11:33:36;3.33;;;2.20;;
67597;SDS011;62026;39.230;9.122;2023-08-17T11:36:04;5.28;;;2.15;;
67597;SDS011;62026;39.230;9.122;2023-08-17T11:38:39;3.78;;;2.35;;
67597;SDS011;62026;39.230;9.122;2023-08-17T11:41:08;2.78;;;2.25;;
67597;SDS011;62026;39.230;9.122;2023-08-17T11:43:35;4.32;;;2.20;;
67597;SDS011;62026;39.230;9.122;2023-08-17T11:46:02;3.05;;;2.40;;
67597;SDS011;62026;39.230;9.122;2023-08-17T11:48:30;3.35;;;2.22;;
67597;SDS011;62026;39.230;9.122;2023-08-17T11:50:56;2.63;;;2.42;;
67597;SDS011;62026;39.230;9.122;2023-08-17T11:53:23;2.72;;;2.10;;
67597;SDS011;62026;39.230;9.122;2023-08-17T11:55:49;4.30;;;2.42;;
67597;SDS011;62026;39.230;9.122;2023-08-17T11:58:16;2.47;;;2.20;;
67597;SDS011;62026;39.230;9.122;2023-08-17T12:00:42;4.78;;;2.20;;
67597;SDS011;62026;39.230;9.122;2023-08-17T12:03:12;5.93;;;2.75;;
67597;SDS011;62026;39.230;9.122;2023-08-17T12:05:44;3.78;;;2.10;;
67597;SDS011;62026;39.230;9.122;2023-08-17T12:08:10;3.55;;;2.30;;
67597;SDS011;62026;39.230;9.122;2023-08-17T12:10:40;3.35;;;2.35;;
67597;SDS011;62026;39.230;9.122;2023-08-17T12:13:06;4.82;;;2.38;;
67597;SDS011;62026;39.230;9.122;2023-08-17T12:15:36;3.92;;;2.35;;
67597;SDS011;62026;39.230;9.122;2023-08-17T12:18:04;2.83;;;2.40;;
67597;SDS011;62026;39.230;9.122;2023-08-17T12:20:32;3.60;;;2.35;;
67597;SDS011;62026;39.230;9.122;2023-08-17T12:23:02;3.30;;;2.40;;
67597;SDS011;62026;39.230;9.122;2023-08-17T12:25:28;5.55;;;2.28;;
67597;SDS011;62026;39.230;9.122;2023-08-17T12:27:57;5.30;;;2.65;;
67597;SDS011;62026;39.230;9.122;2023-08-17T12:30:29;7.22;;;2.30;;
67597;SDS011;62026;39.230;9.122;2023-08-17T12:32:58;2.83;;;2.40;;
67597;SDS011;62026;39.230;9.122;2023-08-17T12:35:24;4.32;;;2.28;;
67597;SDS011;62026;39.230;9.122;2023-08-17T12:37:51;2.65;;;2.05;;
67597;SDS011;62026;39.230;9.122;2023-08-17T12:40:18;2.78;;;2.38;;
67597;SDS011;62026;39.230;9.122;2023-08-17T12:42:45;3.67;;;2.10;;
67597;SDS011;62026;39.230;9.122;2023-08-17T12:45:12;5.20;;;2.47;;
67597;SDS011;62026;39.230;9.122;2023-08-17T12:47:39;4.57;;;2.50;;
67597;SDS011;62026;39.230;9.122;2023-08-17T12:50:05;3.03;;;2.10;;
67597;SDS011;62026;39.230;9.122;2023-08-17T12:52:31;3.20;;;2.20;;
67597;SDS011;62026;39.230;9.122;2023-08-17T12:54:57;3.58;;;2.03;;
67597;SDS011;62026;39.230;9.122;2023-08-17T12:57:24;3.28;;;2.28;;
67597;SDS011;62026;39.230;9.122;2023-08-17T12:59:52;4.63;;;2.40;;
67597;SDS011;62026;39.230;9.122;2023-08-17T13:02:19;3.33;;;2.33;;
67597;SDS011;62026;39.230;9.122;2023-08-17T13:04:46;6.03;;;2.25;;
67597;SDS011;62026;39.230;9.122;2023-08-17T13:07:12;3.35;;;2.35;;
67597;SDS011;62026;39.230;9.122;2023-08-17T13:09:38;3.38;;;2.33;;
67597;SDS011;62026;39.230;9.122;2023-08-17T13:12:04;2.97;;;2.35;;
67597;SDS011;62026;39.230;9.122;2023-08-17T13:14:30;5.13;;;2.45;;
67597;SDS011;62026;39.230;9.122;2023-08-17T13:16:56;4.57;;;2.55;;
67597;SDS011;62026;39.230;9.122;2023-08-17T13:19:22;4.47;;;2.58;;
67597;SDS011;62026;39.230;9.122;2023-08-17T13:21:48;4.53;;;2.20;;
67597;SDS011;62026;39.230;9.122;2023-08-17T13:24:14;6.35;;;2.30;;
67597;SDS011;62026;39.230;9.122;2023-08-17T13:26:40;8.35;;;2.45;;
67597;SDS011;62026;39.230;9.122;2023-08-17T13:29:06;5.25;;;2.65;;
67597;SDS011;62026;39.230;9.122;2023-08-17T13:31:32;3.50;;;1.92;;
67597;SDS011;62026;39.230;9.122;2023-08-17T13:33:58;3.65;;;2.25;;
67597;SDS011;62026;39.230;9.122;2023-08-17T13:36:24;4.65;;;2.10;;
67597;SDS011;62026;39.230;9.122;2023-08-17T13:38:50;2.97;;;1.85;;
67597;SDS011;62026;39.230;9.122;2023-08-17T13:41:16;3.67;;;1.80;;
67597;SDS011;62026;39.230;9.122;2023-08-17T13:43:42;4.45;;;2.85;;
67597;SDS011;62026;39.230;9.122;2023-08-17T13:46:08;2.67;;;2.25;;
67597;SDS011;62026;39.230;9.122;2023-08-17T13:48:34;2.50;;;1.85;;
67597;SDS011;62026;39.230;9.122;2023-08-17T13:51:00;6.65;;;1.80;;
67597;SDS011;62026;39.230;9.122;2023-08-17T13:53:26;3.53;;;1.70;;
67597;SDS011;62026;39.230;9.122;2023-08-17T13:55:52;5.05;;;1.70;;
67597;SDS011;62026;39.230;9.122;2023-08-17T13:58:18;2.55;;;1.90;;
67597;SDS011;62026;39.230;9.122;2023-08-17T14:00:44;2.83;;;1.80;;
67597;SDS011;62026;39.230;9.122;2023-08-17T14:03:10;3.25;;;2.00;;
67597;SDS011;62026;39.230;9.122;2023-08-17T14:05:36;2.08;;;1.65;;
67597;SDS011;62026;39.230;9.122;2023-08-17T14:08:02;4.00;;;2.30;;
67597;SDS011;62026;39.230;9.122;2023-08-17T14:10:29;2.72;;;1.83;;
67597;SDS011;62026;39.230;9.122;2023-08-17T14:12:55;5.57;;;1.90;;
67597;SDS011;62026;39.230;9.122;2023-08-17T14:15:21;2.30;;;1.60;;
67597;SDS011;62026;39.230;9.122;2023-08-17T14:17:47;2.13;;;1.40;;
67597;SDS011;62026;39.230;9.122;2023-08-17T14:20:13;3.28;;;1.70;;
67597;SDS011;62026;39.230;9.122;2023-08-17T14:22:40;3.47;;;1.50;;
67597;SDS011;62026;39.230;9.122;2023-08-17T14:25:06;4.47;;;1.70;;
67597;SDS011;62026;39.230;9.122;2023-08-17T14:27:32;3.35;;;1.70;;
67597;SDS011;62026;39.230;9.122;2023-08-17T14:29:58;3.10;;;1.65;;
67597;SDS011;62026;39.230;9.122;2023-08-17T14:32:27;4.80;;;1.80;;
67597;SDS011;62026;39.230;9.122;2023-08-17T14:34:54;3.03;;;1.70;;
67597;SDS011;62026;39.230;9.122;2023-08-17T14:37:20;2.83;;;1.70;;
67597;SDS011;62026;39.230;9.122;2023-08-17T14:39:46;8.27;;;1.73;;
67597;SDS011;62026;39.230;9.122;2023-08-17T14:42:12;2.67;;;1.65;;
67597;SDS011;62026;39.230;9.122;2023-08-17T14:44:38;4.20;;;1.75;;
67597;SDS011;62026;39.230;9.122;2023-08-17T14:47:04;3.10;;;1.60;;
67597;SDS011;62026;39.230;9.122;2023-08-17T14:49:30;2.05;;;1.60;;
67597;SDS011;62026;39.230;9.122;2023-08-17T14:51:56;4.30;;;1.60;;
67597;SDS011;62026;39.230;9.122;2023-08-17T14:54:22;2.63;;;1.70;;
67597;SDS011;62026;39.230;9.122;2023-08-17T14:56:50;3.55;;;1.90;;
67597;SDS011;62026;39.230;9.122;2023-08-17T14:59:17;5.18;;;2.00;;
67597;SDS011;62026;39.230;9.122;2023-08-17T15:01:43;4.10;;;1.83;;
67597;SDS011;62026;39.230;9.122;2023-08-17T15:04:10;3.03;;;1.70;;